sensor_id;sensor_type;location;lat;lon;timestamp;P1;durP1;ratioP1;P2;durP2;ratioP2
73585;SDS011;61865;50.232;18.614;2022-09-28T00:01:22;18.45;;;8.32;;
73585;SDS011;61865;50.232;18.614;2022-09-28T00:03:45;23.20;;;10.52;;
73585;SDS011;61865;50.232;18.614;2022-09-28T00:06:09;24.50;;;11.40;;
73585;SDS011;61865;50.232;18.614;2022-09-28T00:08:33;24.23;;;11.27;;
73585;SDS011;61865;50.232;18.614;2022-09-28T00:10:56;20.65;;;9.75;;
73585;SDS011;61865;50.232;18.614;2022-09-28T00:13:18;23.95;;;10.18;;
73585;SDS011;61865;50.232;18.614;2022-09-28T00:15:40;21.90;;;10.30;;
73585;SDS011;61865;50.232;18.614;2022-09-28T00:18:03;18.23;;;8.95;;
73585;SDS011;61865;50.232;18.614;2022-09-28T00:20:25;20.17;;;9.77;;
73585;SDS011;61865;50.232;18.614;2022-09-28T00:22:46;19.70;;;9.23;;
73585;SDS011;61865;50.232;18.614;2022-09-28T00:25:08;15.27;;;8.13;;
73585;SDS011;61865;50.232;18.614;2022-09-28T00:27:30;13.70;;;8.43;;
73585;SDS011;61865;50.232;18.614;2022-09-28T00:29:52;13.48;;;7.15;;
73585;SDS011;61865;50.232;18.614;2022-09-28T00:32:14;13.60;;;7.30;;
73585;SDS011;61865;50.232;18.614;2022-09-28T00:34:38;13.63;;;7.28;;
73585;SDS011;61865;50.232;18.614;2022-09-28T00:37:03;10.23;;;7.32;;
73585;SDS011;61865;50.232;18.614;2022-09-28T00:39:27;12.38;;;6.78;;
73585;SDS011;61865;50.232;18.614;2022-09-28T00:41:50;8.52;;;5.05;;
73585;SDS011;61865;50.232;18.614;2022-09-28T00:44:26;10.30;;;4.55;;
73585;SDS011;61865;50.232;18.614;2022-09-28T00:47:02;6.30;;;4.20;;
73585;SDS011;61865;50.232;18.614;2022-09-28T00:49:30;8.23;;;4.97;;
73585;SDS011;61865;50.232;18.614;2022-09-28T00:51:56;5.88;;;3.65;;
73585;SDS011;61865;50.232;18.614;2022-09-28T00:54:18;7.47;;;4.03;;
73585;SDS011;61865;50.232;18.614;2022-09-28T00:56:41;8.68;;;4.05;;
73585;SDS011;61865;50.232;18.614;2022-09-28T00:59:05;5.78;;;3.92;;
73585;SDS011;61865;50.232;18.614;2022-09-28T01:01:29;6.97;;;4.05;;
73585;SDS011;61865;50.232;18.614;2022-09-28T01:03:51;6.60;;;4.13;;
73585;SDS011;61865;50.232;18.614;2022-09-28T01:06:16;6.50;;;4.50;;
73585;SDS011;61865;50.232;18.614;2022-09-28T01:08:41;10.38;;;4.25;;
73585;SDS011;61865;50.232;18.614;2022-09-28T01:11:05;9.40;;;4.28;;
73585;SDS011;61865;50.232;18.614;2022-09-28T01:13:27;6.72;;;4.57;;
73585;SDS011;61865;50.232;18.614;2022-09-28T01:15:55;7.28;;;4.55;;
73585;SDS011;61865;50.232;18.614;2022-09-28T01:18:27;9.60;;;4.40;;
73585;SDS011;61865;50.232;18.614;2022-09-28T01:20:55;9.45;;;4.68;;
73585;SDS011;61865;50.232;18.614;2022-09-28T01:29:05;9.02;;;3.65;;
73585;SDS011;61865;50.232;18.614;2022-09-28T01:31:35;9.90;;;4.10;;
73585;SDS011;61865;50.232;18.614;2022-09-28T01:34:02;8.18;;;4.53;;
73585;SDS011;61865;50.232;18.614;2022-09-28T01:36:31;6.32;;;3.67;;
73585;SDS011;61865;50.232;18.614;2022-09-28T01:38:58;5.55;;;3.47;;
73585;SDS011;61865;50.232;18.614;2022-09-28T01:41:23;5.95;;;3.65;;
73585;SDS011;61865;50.232;18.614;2022-09-28T01:43:47;6.05;;;2.80;;
73585;SDS011;61865;50.232;18.614;2022-09-28T01:46:15;4.82;;;3.13;;
73585;SDS011;61865;50.232;18.614;2022-09-28T01:48:42;6.45;;;3.22;;
73585;SDS011;61865;50.232;18.614;2022-09-28T01:51:09;5.93;;;3.10;;
73585;SDS011;61865;50.232;18.614;2022-09-28T01:53:38;5.32;;;3.45;;
73585;SDS011;61865;50.232;18.614;2022-09-28T01:56:03;9.82;;;3.78;;
73585;SDS011;61865;50.232;18.614;2022-09-28T01:58:32;6.03;;;3.80;;
73585;SDS011;61865;50.232;18.614;2022-09-28T02:00:58;9.93;;;3.97;;
73585;SDS011;61865;50.232;18.614;2022-09-28T02:03:25;9.73;;;5.07;;
73585;SDS011;61865;50.232;18.614;2022-09-28T02:05:53;8.63;;;5.18;;
73585;SDS011;61865;50.232;18.614;2022-09-28T02:08:18;7.93;;;5.10;;
73585;SDS011;61865;50.232;18.614;2022-09-28T02:10:47;8.20;;;4.82;;
73585;SDS011;61865;50.232;18.614;2022-09-28T02:13:13;9.18;;;5.63;;
73585;SDS011;61865;50.232;18.614;2022-09-28T02:15:39;13.02;;;4.43;;
73585;SDS011;61865;50.232;18.614;2022-09-28T02:18:06;9.32;;;5.47;;
73585;SDS011;61865;50.232;18.614;2022-09-28T02:20:30;8.88;;;4.97;;
73585;SDS011;61865;50.232;18.614;2022-09-28T02:22:55;10.18;;;4.70;;
73585;SDS011;61865;50.232;18.614;2022-09-28T02:25:20;7.15;;;4.40;;
73585;SDS011;61865;50.232;18.614;2022-09-28T02:27:49;10.25;;;4.75;;
73585;SDS011;61865;50.232;18.614;2022-09-28T02:30:15;8.02;;;4.55;;
73585;SDS011;61865;50.232;18.614;2022-09-28T02:32:38;7.57;;;5.07;;
73585;SDS011;61865;50.232;18.614;2022-09-28T02:35:05;11.48;;;5.38;;
73585;SDS011;61865;50.232;18.614;2022-09-28T02:37:29;9.85;;;5.45;;
73585;SDS011;61865;50.232;18.614;2022-09-28T02:39:51;9.20;;;5.65;;
73585;SDS011;61865;50.232;18.614;2022-09-28T02:42:14;7.32;;;4.72;;
73585;SDS011;61865;50.232;18.614;2022-09-28T02:44:53;8.43;;;5.63;;
73585;SDS011;61865;50.232;18.614;2022-09-28T02:47:26;12.35;;;5.50;;
73585;SDS011;61865;50.232;18.614;2022-09-28T02:49:57;9.10;;;5.85;;
73585;SDS011;61865;50.232;18.614;2022-09-28T02:52:35;9.82;;;5.35;;
73585;SDS011;61865;50.232;18.614;2022-09-28T02:55:18;10.93;;;5.57;;
73585;SDS011;61865;50.232;18.614;2022-09-28T02:57:46;9.75;;;5.00;;
73585;SDS011;61865;50.232;18.614;2022-09-28T03:00:28;9.98;;;5.60;;
73585;SDS011;61865;50.232;18.614;2022-09-28T03:02:57;10.27;;;5.60;;
73585;SDS011;61865;50.232;18.614;2022-09-28T03:05:24;11.25;;;4.95;;
73585;SDS011;61865;50.232;18.614;2022-09-28T03:07:56;8.98;;;5.35;;
73585;SDS011;61865;50.232;18.614;2022-09-28T03:10:22;13.57;;;5.63;;
73585;SDS011;61865;50.232;18.614;2022-09-28T03:12:48;15.23;;;5.90;;
73585;SDS011;61865;50.232;18.614;2022-09-28T03:15:13;11.18;;;5.60;;
73585;SDS011;61865;50.232;18.614;2022-09-28T03:17:41;10.48;;;4.97;;
73585;SDS011;61865;50.232;18.614;2022-09-28T03:20:03;12.18;;;4.93;;
73585;SDS011;61865;50.232;18.614;2022-09-28T03:22:26;7.85;;;4.30;;
73585;SDS011;61865;50.232;18.614;2022-09-28T03:24:49;7.63;;;4.35;;
73585;SDS011;61865;50.232;18.614;2022-09-28T03:27:11;7.90;;;4.20;;
73585;SDS011;61865;50.232;18.614;2022-09-28T03:29:33;8.45;;;4.78;;
73585;SDS011;61865;50.232;18.614;2022-09-28T03:31:54;9.77;;;5.20;;
73585;SDS011;61865;50.232;18.614;2022-09-28T03:34:16;9.90;;;5.00;;
73585;SDS011;61865;50.232;18.614;2022-09-28T03:36:38;9.57;;;5.32;;
73585;SDS011;61865;50.232;18.614;2022-09-28T03:39:00;10.05;;;4.85;;
73585;SDS011;61865;50.232;18.614;2022-09-28T03:41:23;8.93;;;5.07;;
73585;SDS011;61865;50.232;18.614;2022-09-28T03:43:46;8.73;;;5.22;;
73585;SDS011;61865;50.232;18.614;2022-09-28T03:46:08;8.52;;;5.22;;
73585;SDS011;61865;50.232;18.614;2022-09-28T03:48:30;8.35;;;4.38;;
73585;SDS011;61865;50.232;18.614;2022-09-28T03:50:55;6.63;;;4.60;;
73585;SDS011;61865;50.232;18.614;2022-09-28T03:53:18;9.52;;;4.68;;
73585;SDS011;61865;50.232;18.614;2022-09-28T03:55:40;7.40;;;5.05;;
73585;SDS011;61865;50.232;18.614;2022-09-28T03:58:03;8.68;;;5.10;;
73585;SDS011;61865;50.232;18.614;2022-09-28T04:00:25;10.57;;;5.50;;
73585;SDS011;61865;50.232;18.614;2022-09-28T04:02:47;9.57;;;4.25;;
73585;SDS011;61865;50.232;18.614;2022-09-28T04:05:09;6.90;;;4.60;;
73585;SDS011;61865;50.232;18.614;2022-09-28T04:07:31;9.52;;;4.53;;
73585;SDS011;61865;50.232;18.614;2022-09-28T04:09:53;8.07;;;4.72;;
73585;SDS011;61865;50.232;18.614;2022-09-28T04:12:15;8.15;;;5.00;;
73585;SDS011;61865;50.232;18.614;2022-09-28T04:14:38;9.43;;;4.60;;
73585;SDS011;61865;50.232;18.614;2022-09-28T04:16:59;8.65;;;4.57;;
73585;SDS011;61865;50.232;18.614;2022-09-28T04:19:21;8.05;;;4.68;;
73585;SDS011;61865;50.232;18.614;2022-09-28T04:21:44;6.90;;;4.35;;
73585;SDS011;61865;50.232;18.614;2022-09-28T04:24:06;7.25;;;4.65;;
73585;SDS011;61865;50.232;18.614;2022-09-28T04:26:28;7.95;;;4.60;;
73585;SDS011;61865;50.232;18.614;2022-09-28T04:28:50;10.40;;;4.90;;
73585;SDS011;61865;50.232;18.614;2022-09-28T04:31:35;6.80;;;3.97;;
73585;SDS011;61865;50.232;18.614;2022-09-28T04:33:58;7.75;;;4.55;;
73585;SDS011;61865;50.232;18.614;2022-09-28T04:36:20;10.65;;;4.68;;
73585;SDS011;61865;50.232;18.614;2022-09-28T04:38:44;9.40;;;5.30;;
73585;SDS011;61865;50.232;18.614;2022-09-28T04:41:06;7.70;;;4.68;;
73585;SDS011;61865;50.232;18.614;2022-09-28T04:43:28;8.43;;;4.95;;
73585;SDS011;61865;50.232;18.614;2022-09-28T04:45:49;7.50;;;4.90;;
73585;SDS011;61865;50.232;18.614;2022-09-28T04:48:13;15.85;;;4.53;;
73585;SDS011;61865;50.232;18.614;2022-09-28T04:50:34;6.43;;;4.25;;
73585;SDS011;61865;50.232;18.614;2022-09-28T04:52:56;7.28;;;4.78;;
73585;SDS011;61865;50.232;18.614;2022-09-28T04:55:20;7.60;;;4.43;;
73585;SDS011;61865;50.232;18.614;2022-09-28T04:57:42;7.05;;;4.25;;
73585;SDS011;61865;50.232;18.614;2022-09-28T05:00:04;7.55;;;4.22;;
73585;SDS011;61865;50.232;18.614;2022-09-28T05:02:27;7.30;;;4.40;;
73585;SDS011;61865;50.232;18.614;2022-09-28T05:04:50;6.57;;;4.07;;
73585;SDS011;61865;50.232;18.614;2022-09-28T05:07:14;9.02;;;4.18;;
73585;SDS011;61865;50.232;18.614;2022-09-28T05:09:36;6.82;;;3.90;;
73585;SDS011;61865;50.232;18.614;2022-09-28T05:11:58;6.80;;;4.20;;
73585;SDS011;61865;50.232;18.614;2022-09-28T05:14:20;7.50;;;4.10;;
73585;SDS011;61865;50.232;18.614;2022-09-28T05:16:42;11.27;;;3.85;;
73585;SDS011;61865;50.232;18.614;2022-09-28T05:19:04;8.07;;;4.10;;
73585;SDS011;61865;50.232;18.614;2022-09-28T05:21:28;9.32;;;3.90;;
73585;SDS011;61865;50.232;18.614;2022-09-28T05:23:50;5.35;;;3.45;;
73585;SDS011;61865;50.232;18.614;2022-09-28T05:26:15;4.15;;;2.88;;
73585;SDS011;61865;50.232;18.614;2022-09-28T05:28:37;11.15;;;4.07;;
73585;SDS011;61865;50.232;18.614;2022-09-28T05:30:59;5.65;;;3.45;;
73585;SDS011;61865;50.232;18.614;2022-09-28T05:33:21;7.18;;;3.83;;
73585;SDS011;61865;50.232;18.614;2022-09-28T05:35:43;6.15;;;3.70;;
73585;SDS011;61865;50.232;18.614;2022-09-28T05:38:06;7.00;;;4.40;;
73585;SDS011;61865;50.232;18.614;2022-09-28T05:40:28;5.25;;;3.63;;
73585;SDS011;61865;50.232;18.614;2022-09-28T05:42:50;6.40;;;3.63;;
73585;SDS011;61865;50.232;18.614;2022-09-28T05:45:11;6.95;;;3.65;;
73585;SDS011;61865;50.232;18.614;2022-09-28T05:47:36;8.63;;;3.95;;
73585;SDS011;61865;50.232;18.614;2022-09-28T05:49:58;5.53;;;3.13;;
73585;SDS011;61865;50.232;18.614;2022-09-28T05:52:20;6.43;;;3.33;;
73585;SDS011;61865;50.232;18.614;2022-09-28T05:54:43;6.32;;;3.17;;
73585;SDS011;61865;50.232;18.614;2022-09-28T05:57:05;3.95;;;2.88;;
73585;SDS011;61865;50.232;18.614;2022-09-28T05:59:27;6.78;;;3.45;;
73585;SDS011;61865;50.232;18.614;2022-09-28T06:01:49;4.70;;;3.28;;
73585;SDS011;61865;50.232;18.614;2022-09-28T06:04:11;6.32;;;3.65;;
73585;SDS011;61865;50.232;18.614;2022-09-28T06:06:35;8.15;;;3.70;;
73585;SDS011;61865;50.232;18.614;2022-09-28T06:08:58;10.77;;;3.17;;
73585;SDS011;61865;50.232;18.614;2022-09-28T06:11:21;4.93;;;3.00;;
73585;SDS011;61865;50.232;18.614;2022-09-28T06:13:46;5.53;;;3.33;;
73585;SDS011;61865;50.232;18.614;2022-09-28T06:16:13;4.50;;;2.90;;
73585;SDS011;61865;50.232;18.614;2022-09-28T06:18:36;5.35;;;3.13;;
73585;SDS011;61865;50.232;18.614;2022-09-28T06:20:58;4.80;;;2.97;;
73585;SDS011;61865;50.232;18.614;2022-09-28T06:23:20;4.32;;;2.85;;
73585;SDS011;61865;50.232;18.614;2022-09-28T06:25:42;8.02;;;3.10;;
73585;SDS011;61865;50.232;18.614;2022-09-28T06:28:06;10.35;;;3.53;;
73585;SDS011;61865;50.232;18.614;2022-09-28T06:30:30;5.03;;;3.10;;
73585;SDS011;61865;50.232;18.614;2022-09-28T06:32:53;5.95;;;3.17;;
73585;SDS011;61865;50.232;18.614;2022-09-28T06:35:16;6.40;;;3.20;;
73585;SDS011;61865;50.232;18.614;2022-09-28T06:37:37;6.25;;;3.50;;
73585;SDS011;61865;50.232;18.614;2022-09-28T06:39:59;5.45;;;3.22;;
73585;SDS011;61865;50.232;18.614;2022-09-28T06:42:21;5.20;;;3.08;;
73585;SDS011;61865;50.232;18.614;2022-09-28T06:44:45;4.35;;;2.90;;
73585;SDS011;61865;50.232;18.614;2022-09-28T06:47:06;6.95;;;3.25;;
73585;SDS011;61865;50.232;18.614;2022-09-28T06:49:28;6.03;;;3.65;;
73585;SDS011;61865;50.232;18.614;2022-09-28T06:51:50;6.30;;;3.35;;
73585;SDS011;61865;50.232;18.614;2022-09-28T06:54:12;6.18;;;3.15;;
73585;SDS011;61865;50.232;18.614;2022-09-28T06:56:34;6.63;;;3.13;;
73585;SDS011;61865;50.232;18.614;2022-09-28T06:58:56;5.65;;;3.10;;
73585;SDS011;61865;50.232;18.614;2022-09-28T07:01:19;7.22;;;3.30;;
73585;SDS011;61865;50.232;18.614;2022-09-28T07:03:41;6.40;;;2.78;;
73585;SDS011;61865;50.232;18.614;2022-09-28T07:06:03;5.40;;;2.58;;
73585;SDS011;61865;50.232;18.614;2022-09-28T07:08:25;4.55;;;2.78;;
73585;SDS011;61865;50.232;18.614;2022-09-28T07:10:48;4.50;;;2.60;;
73585;SDS011;61865;50.232;18.614;2022-09-28T07:13:15;7.60;;;3.83;;
73585;SDS011;61865;50.232;18.614;2022-09-28T07:15:38;4.13;;;2.67;;
73585;SDS011;61865;50.232;18.614;2022-09-28T07:18:03;5.53;;;3.42;;
73585;SDS011;61865;50.232;18.614;2022-09-28T07:20:26;10.60;;;5.90;;
73585;SDS011;61865;50.232;18.614;2022-09-28T07:22:51;7.68;;;2.90;;
73585;SDS011;61865;50.232;18.614;2022-09-28T07:25:13;5.28;;;2.83;;
73585;SDS011;61865;50.232;18.614;2022-09-28T07:27:35;5.32;;;2.50;;
73585;SDS011;61865;50.232;18.614;2022-09-28T07:29:57;4.25;;;2.53;;
73585;SDS011;61865;50.232;18.614;2022-09-28T07:32:19;7.78;;;2.85;;
73585;SDS011;61865;50.232;18.614;2022-09-28T07:34:43;5.45;;;2.55;;
73585;SDS011;61865;50.232;18.614;2022-09-28T07:37:04;6.07;;;2.85;;
73585;SDS011;61865;50.232;18.614;2022-09-28T07:39:30;4.63;;;2.50;;
73585;SDS011;61865;50.232;18.614;2022-09-28T07:42:12;4.47;;;2.30;;
73585;SDS011;61865;50.232;18.614;2022-09-28T07:44:33;4.32;;;2.70;;
73585;SDS011;61865;50.232;18.614;2022-09-28T07:46:55;4.38;;;2.60;;
73585;SDS011;61865;50.232;18.614;2022-09-28T07:49:17;4.68;;;2.50;;
73585;SDS011;61865;50.232;18.614;2022-09-28T07:51:42;4.95;;;3.05;;
73585;SDS011;61865;50.232;18.614;2022-09-28T07:54:04;8.68;;;3.03;;
73585;SDS011;61865;50.232;18.614;2022-09-28T07:56:26;6.65;;;3.05;;
73585;SDS011;61865;50.232;18.614;2022-09-28T07:58:48;6.20;;;3.05;;
73585;SDS011;61865;50.232;18.614;2022-09-28T08:01:10;4.25;;;2.35;;
73585;SDS011;61865;50.232;18.614;2022-09-28T08:03:33;5.35;;;2.55;;
73585;SDS011;61865;50.232;18.614;2022-09-28T08:05:56;6.03;;;3.05;;
73585;SDS011;61865;50.232;18.614;2022-09-28T08:08:20;3.72;;;2.20;;
73585;SDS011;61865;50.232;18.614;2022-09-28T08:10:42;6.30;;;2.03;;
73585;SDS011;61865;50.232;18.614;2022-09-28T08:13:04;3.50;;;2.42;;
73585;SDS011;61865;50.232;18.614;2022-09-28T08:15:26;5.75;;;2.35;;
73585;SDS011;61865;50.232;18.614;2022-09-28T08:17:48;3.83;;;2.45;;
73585;SDS011;61865;50.232;18.614;2022-09-28T08:20:10;5.15;;;2.50;;
73585;SDS011;61865;50.232;18.614;2022-09-28T08:22:49;6.97;;;2.65;;
73585;SDS011;61865;50.232;18.614;2022-09-28T08:25:12;4.65;;;2.60;;
73585;SDS011;61865;50.232;18.614;2022-09-28T08:27:34;5.25;;;2.72;;
73585;SDS011;61865;50.232;18.614;2022-09-28T08:29:56;6.75;;;2.50;;
73585;SDS011;61865;50.232;18.614;2022-09-28T08:32:18;4.13;;;2.28;;
73585;SDS011;61865;50.232;18.614;2022-09-28T08:34:40;7.85;;;2.08;;
73585;SDS011;61865;50.232;18.614;2022-09-28T08:37:02;4.32;;;2.25;;
73585;SDS011;61865;50.232;18.614;2022-09-28T08:39:24;3.22;;;2.17;;
73585;SDS011;61865;50.232;18.614;2022-09-28T08:41:48;5.63;;;2.22;;
73585;SDS011;61865;50.232;18.614;2022-09-28T08:44:15;2.58;;;1.90;;
73585;SDS011;61865;50.232;18.614;2022-09-28T08:46:44;3.45;;;1.95;;
73585;SDS011;61865;50.232;18.614;2022-09-28T08:49:09;4.10;;;2.10;;
73585;SDS011;61865;50.232;18.614;2022-09-28T08:51:37;3.30;;;1.92;;
73585;SDS011;61865;50.232;18.614;2022-09-28T08:54:05;4.82;;;2.10;;
73585;SDS011;61865;50.232;18.614;2022-09-28T08:56:37;1.90;;;1.70;;
73585;SDS011;61865;50.232;18.614;2022-09-28T08:59:06;1.88;;;1.40;;
73585;SDS011;61865;50.232;18.614;2022-09-28T09:01:33;4.18;;;1.60;;
73585;SDS011;61865;50.232;18.614;2022-09-28T09:03:59;2.95;;;1.77;;
73585;SDS011;61865;50.232;18.614;2022-09-28T09:06:23;2.97;;;1.80;;
73585;SDS011;61865;50.232;18.614;2022-09-28T09:08:58;3.33;;;1.92;;
73585;SDS011;61865;50.232;18.614;2022-09-28T09:11:32;2.78;;;1.83;;
73585;SDS011;61865;50.232;18.614;2022-09-28T09:14:18;3.25;;;1.65;;
73585;SDS011;61865;50.232;18.614;2022-09-28T09:16:54;3.55;;;1.75;;
73585;SDS011;61865;50.232;18.614;2022-09-28T09:19:25;9.70;;;1.65;;
73585;SDS011;61865;50.232;18.614;2022-09-28T09:21:57;5.35;;;2.22;;
73585;SDS011;61865;50.232;18.614;2022-09-28T09:24:23;6.30;;;2.33;;
73585;SDS011;61865;50.232;18.614;2022-09-28T09:26:46;5.28;;;2.80;;
73585;SDS011;61865;50.232;18.614;2022-09-28T09:29:24;3.70;;;2.20;;
73585;SDS011;61865;50.232;18.614;2022-09-28T09:31:55;2.30;;;1.73;;
73585;SDS011;61865;50.232;18.614;2022-09-28T09:34:41;3.17;;;2.00;;
73585;SDS011;61865;50.232;18.614;2022-09-28T09:37:30;5.07;;;2.15;;
73585;SDS011;61865;50.232;18.614;2022-09-28T09:40:16;3.47;;;1.90;;
73585;SDS011;61865;50.232;18.614;2022-09-28T09:42:50;2.55;;;1.58;;
73585;SDS011;61865;50.232;18.614;2022-09-28T09:45:37;2.80;;;1.70;;
73585;SDS011;61865;50.232;18.614;2022-09-28T09:48:11;3.80;;;1.95;;
73585;SDS011;61865;50.232;18.614;2022-09-28T09:50:42;2.35;;;1.88;;
73585;SDS011;61865;50.232;18.614;2022-09-28T09:53:10;8.27;;;2.38;;
73585;SDS011;61865;50.232;18.614;2022-09-28T09:55:39;3.08;;;1.90;;
73585;SDS011;61865;50.232;18.614;2022-09-28T09:58:04;4.45;;;1.73;;
73585;SDS011;61865;50.232;18.614;2022-09-28T10:00:30;3.03;;;1.75;;
73585;SDS011;61865;50.232;18.614;2022-09-28T10:02:54;5.15;;;1.80;;
73585;SDS011;61865;50.232;18.614;2022-09-28T10:05:20;2.03;;;1.50;;
73585;SDS011;61865;50.232;18.614;2022-09-28T10:07:48;3.13;;;2.03;;
73585;SDS011;61865;50.232;18.614;2022-09-28T10:10:14;2.47;;;1.60;;
73585;SDS011;61865;50.232;18.614;2022-09-28T10:12:40;3.55;;;2.10;;
73585;SDS011;61865;50.232;18.614;2022-09-28T10:15:02;2.53;;;1.77;;
73585;SDS011;61865;50.232;18.614;2022-09-28T10:17:27;5.47;;;2.40;;
73585;SDS011;61865;50.232;18.614;2022-09-28T10:19:50;8.32;;;2.80;;
73585;SDS011;61865;50.232;18.614;2022-09-28T10:22:16;2.95;;;1.77;;
73585;SDS011;61865;50.232;18.614;2022-09-28T10:24:43;4.03;;;1.80;;
73585;SDS011;61865;50.232;18.614;2022-09-28T10:27:07;5.38;;;2.50;;
73585;SDS011;61865;50.232;18.614;2022-09-28T10:29:37;3.78;;;1.90;;
73585;SDS011;61865;50.232;18.614;2022-09-28T10:32:05;8.07;;;2.05;;
73585;SDS011;61865;50.232;18.614;2022-09-28T10:34:38;2.90;;;1.50;;
73585;SDS011;61865;50.232;18.614;2022-09-28T10:37:03;2.72;;;1.70;;
73585;SDS011;61865;50.232;18.614;2022-09-28T10:39:30;2.47;;;1.45;;
73585;SDS011;61865;50.232;18.614;2022-09-28T10:41:53;2.95;;;1.55;;
73585;SDS011;61865;50.232;18.614;2022-09-28T10:44:15;6.55;;;1.85;;
73585;SDS011;61865;50.232;18.614;2022-09-28T10:46:40;4.72;;;1.60;;
73585;SDS011;61865;50.232;18.614;2022-09-28T10:49:02;3.30;;;1.83;;
73585;SDS011;61865;50.232;18.614;2022-09-28T10:51:38;3.25;;;1.63;;
73585;SDS011;61865;50.232;18.614;2022-09-28T10:54:02;4.95;;;2.00;;
73585;SDS011;61865;50.232;18.614;2022-09-28T10:56:26;2.95;;;1.95;;
73585;SDS011;61865;50.232;18.614;2022-09-28T10:58:48;5.90;;;1.70;;
73585;SDS011;61865;50.232;18.614;2022-09-28T11:01:12;3.55;;;1.42;;
73585;SDS011;61865;50.232;18.614;2022-09-28T11:03:40;2.90;;;1.50;;
73585;SDS011;61865;50.232;18.614;2022-09-28T11:06:09;6.20;;;2.25;;
73585;SDS011;61865;50.232;18.614;2022-09-28T11:08:33;3.42;;;1.70;;
73585;SDS011;61865;50.232;18.614;2022-09-28T11:11:06;4.18;;;2.00;;
73585;SDS011;61865;50.232;18.614;2022-09-28T11:13:30;3.22;;;1.90;;
73585;SDS011;61865;50.232;18.614;2022-09-28T11:16:02;5.00;;;1.90;;
73585;SDS011;61865;50.232;18.614;2022-09-28T11:18:25;7.82;;;1.92;;
73585;SDS011;61865;50.232;18.614;2022-09-28T11:20:50;3.35;;;1.80;;
73585;SDS011;61865;50.232;18.614;2022-09-28T11:23:16;4.75;;;2.20;;
73585;SDS011;61865;50.232;18.614;2022-09-28T11:25:40;3.95;;;1.80;;
73585;SDS011;61865;50.232;18.614;2022-09-28T11:28:04;5.07;;;2.00;;
73585;SDS011;61865;50.232;18.614;2022-09-28T11:30:26;6.38;;;1.60;;
73585;SDS011;61865;50.232;18.614;2022-09-28T11:32:52;3.00;;;1.60;;
73585;SDS011;61865;50.232;18.614;2022-09-28T11:35:18;4.25;;;1.60;;
73585;SDS011;61865;50.232;18.614;2022-09-28T11:37:46;3.42;;;1.58;;
73585;SDS011;61865;50.232;18.614;2022-09-28T11:40:23;9.40;;;2.42;;
73585;SDS011;61865;50.232;18.614;2022-09-28T11:42:51;3.00;;;1.38;;
73585;SDS011;61865;50.232;18.614;2022-09-28T11:45:26;5.72;;;2.25;;
73585;SDS011;61865;50.232;18.614;2022-09-28T11:48:01;3.38;;;1.40;;
73585;SDS011;61865;50.232;18.614;2022-09-28T11:50:26;2.35;;;1.38;;
73585;SDS011;61865;50.232;18.614;2022-09-28T11:52:56;2.42;;;1.73;;
73585;SDS011;61865;50.232;18.614;2022-09-28T11:55:25;8.52;;;2.55;;
73585;SDS011;61865;50.232;18.614;2022-09-28T11:57:53;8.93;;;3.08;;
73585;SDS011;61865;50.232;18.614;2022-09-28T12:00:21;3.72;;;1.83;;
73585;SDS011;61865;50.232;18.614;2022-09-28T12:02:47;10.70;;;3.53;;
73585;SDS011;61865;50.232;18.614;2022-09-28T12:05:12;2.97;;;1.30;;
73585;SDS011;61865;50.232;18.614;2022-09-28T12:07:41;5.80;;;2.20;;
73585;SDS011;61865;50.232;18.614;2022-09-28T12:10:07;6.78;;;2.22;;
73585;SDS011;61865;50.232;18.614;2022-09-28T12:12:36;4.72;;;1.98;;
73585;SDS011;61865;50.232;18.614;2022-09-28T12:15:02;6.93;;;1.73;;
73585;SDS011;61865;50.232;18.614;2022-09-28T12:17:33;2.00;;;1.45;;
73585;SDS011;61865;50.232;18.614;2022-09-28T12:20:02;5.20;;;1.75;;
73585;SDS011;61865;50.232;18.614;2022-09-28T12:22:31;2.60;;;1.50;;
73585;SDS011;61865;50.232;18.614;2022-09-28T12:24:55;3.20;;;1.60;;
73585;SDS011;61865;50.232;18.614;2022-09-28T12:27:19;5.85;;;2.58;;
73585;SDS011;61865;50.232;18.614;2022-09-28T12:29:45;2.88;;;1.60;;
73585;SDS011;61865;50.232;18.614;2022-09-28T12:32:15;1.80;;;1.25;;
73585;SDS011;61865;50.232;18.614;2022-09-28T12:34:47;2.83;;;1.38;;
73585;SDS011;61865;50.232;18.614;2022-09-28T12:37:17;5.85;;;1.67;;
73585;SDS011;61865;50.232;18.614;2022-09-28T12:39:54;2.05;;;1.50;;
73585;SDS011;61865;50.232;18.614;2022-09-28T12:42:41;3.92;;;1.70;;
73585;SDS011;61865;50.232;18.614;2022-09-28T12:45:16;3.40;;;1.63;;
73585;SDS011;61865;50.232;18.614;2022-09-28T12:47:58;3.75;;;1.48;;
73585;SDS011;61865;50.232;18.614;2022-09-28T12:50:31;3.53;;;1.70;;
73585;SDS011;61865;50.232;18.614;2022-09-28T12:53:05;4.15;;;1.80;;
73585;SDS011;61865;50.232;18.614;2022-09-28T12:55:51;4.90;;;1.60;;
73585;SDS011;61865;50.232;18.614;2022-09-28T12:58:21;4.28;;;1.80;;
73585;SDS011;61865;50.232;18.614;2022-09-28T13:00:54;4.13;;;1.95;;
73585;SDS011;61865;50.232;18.614;2022-09-28T13:06:19;4.72;;;1.75;;
73585;SDS011;61865;50.232;18.614;2022-09-28T13:08:59;3.45;;;1.75;;
73585;SDS011;61865;50.232;18.614;2022-09-28T13:11:35;6.20;;;1.70;;
73585;SDS011;61865;50.232;18.614;2022-09-28T13:14:10;3.67;;;1.80;;
73585;SDS011;61865;50.232;18.614;2022-09-28T13:16:46;5.22;;;2.00;;
73585;SDS011;61865;50.232;18.614;2022-09-28T13:19:15;6.00;;;1.90;;
73585;SDS011;61865;50.232;18.614;2022-09-28T13:21:42;4.28;;;2.08;;
73585;SDS011;61865;50.232;18.614;2022-09-28T13:26:41;4.22;;;2.08;;
73585;SDS011;61865;50.232;18.614;2022-09-28T13:29:08;2.58;;;1.70;;
73585;SDS011;61865;50.232;18.614;2022-09-28T13:31:33;5.93;;;2.60;;
73585;SDS011;61865;50.232;18.614;2022-09-28T13:33:58;2.97;;;1.80;;
73585;SDS011;61865;50.232;18.614;2022-09-28T13:36:35;6.68;;;2.33;;
73585;SDS011;61865;50.232;18.614;2022-09-28T13:38:59;7.43;;;1.65;;
73585;SDS011;61865;50.232;18.614;2022-09-28T13:41:23;3.13;;;1.88;;
73585;SDS011;61865;50.232;18.614;2022-09-28T13:43:54;3.05;;;1.55;;
73585;SDS011;61865;50.232;18.614;2022-09-28T13:46:38;4.43;;;2.25;;
73585;SDS011;61865;50.232;18.614;2022-09-28T13:49:11;7.45;;;4.35;;
73585;SDS011;61865;50.232;18.614;2022-09-28T13:51:44;10.38;;;8.13;;
73585;SDS011;61865;50.232;18.614;2022-09-28T13:54:22;5.47;;;3.58;;
73585;SDS011;61865;50.232;18.614;2022-09-28T13:56:58;5.35;;;2.17;;
73585;SDS011;61865;50.232;18.614;2022-09-28T13:59:32;4.50;;;2.35;;
73585;SDS011;61865;50.232;18.614;2022-09-28T14:02:10;6.13;;;2.50;;
73585;SDS011;61865;50.232;18.614;2022-09-28T14:04:52;7.43;;;3.13;;
73585;SDS011;61865;50.232;18.614;2022-09-28T14:07:19;5.40;;;2.60;;
73585;SDS011;61865;50.232;18.614;2022-09-28T14:09:43;6.68;;;3.00;;
73585;SDS011;61865;50.232;18.614;2022-09-28T14:14:50;6.70;;;2.70;;
73585;SDS011;61865;50.232;18.614;2022-09-28T14:20:11;6.15;;;2.90;;
73585;SDS011;61865;50.232;18.614;2022-09-28T14:22:35;5.47;;;2.75;;
73585;SDS011;61865;50.232;18.614;2022-09-28T14:25:06;4.85;;;2.42;;
73585;SDS011;61865;50.232;18.614;2022-09-28T14:30:43;6.07;;;3.10;;
73585;SDS011;61865;50.232;18.614;2022-09-28T14:33:14;5.22;;;2.60;;
73585;SDS011;61865;50.232;18.614;2022-09-28T14:35:43;6.20;;;3.13;;
73585;SDS011;61865;50.232;18.614;2022-09-28T14:38:11;7.28;;;3.45;;
73585;SDS011;61865;50.232;18.614;2022-09-28T14:41:00;7.07;;;3.28;;
73585;SDS011;61865;50.232;18.614;2022-09-28T14:43:35;8.70;;;2.70;;
73585;SDS011;61865;50.232;18.614;2022-09-28T14:48:58;9.25;;;3.00;;
73585;SDS011;61865;50.232;18.614;2022-09-28T14:54:04;6.03;;;2.78;;